Time;durP1;ratioP1;P1;durP2;ratioP2;P2;SDS_P1;SDS_P2;PMS_P1;PMS_P2;Temp;Humidity;BMP_temperature;BMP_pressure;BME280_temperature;BME280_humidity;BME280_pressure;Samples;Min_cycle;Max_cycle;Signal;HPM_P1;HPM_P2
2022/10/28 00:00:45;;;;;;;1.05;0.63;;;;;;;19.81;49.06;100363.97;5067829;28;19917;-86
2022/10/28 00:03:10;;;;;;;1.02;0.50;;;;;;;19.84;49.24;100368.09;5063877;28;20032;-87
2022/10/28 00:05:36;;;;;;;0.88;0.60;;;;;;;19.79;49.53;100363.41;5065690;28;20048;-87
2022/10/28 00:08:01;;;;;;;1.23;0.65;;;;;;;19.82;49.52;100364.81;5061838;28;20062;-87
2022/10/28 00:10:27;;;;;;;1.13;0.68;;;;;;;19.78;49.38;100352.81;5065440;28;20389;-87
2022/10/28 00:12:53;;;;;;;0.98;0.60;;;;;;;19.81;49.60;100363.97;5067859;28;20024;-87
2022/10/28 00:15:18;;;;;;;0.80;0.57;;;;;;;19.81;49.69;100357.72;5062242;28;20711;-87
2022/10/28 00:17:44;;;;;;;0.50;0.50;;;;;;;19.82;49.28;100359.38;5049103;28;20063;-87
2022/10/28 00:20:10;;;;;;;0.93;0.70;;;;;;;19.82;49.62;100364.81;5062762;28;20027;-87
2022/10/28 00:22:35;;;;;;;0.90;0.60;;;;;;;19.80;49.64;100373.19;5065097;28;20102;-87
2022/10/28 00:25:01;;;;;;;1.23;0.65;;;;;;;19.84;49.53;100362.66;5067545;28;20101;-86
2022/10/28 00:27:28;;;;;;;0.90;0.70;;;;;;;19.82;49.38;100365.63;5062329;28;20215;-87
2022/10/28 00:29:56;;;;;;;0.63;0.60;;;;;;;19.85;49.50;100361.56;5067524;28;20028;-87
2022/10/28 00:32:22;;;;;;;0.88;0.70;;;;;;;19.84;49.48;100359.94;5060540;28;20483;-87
2022/10/28 00:34:48;;;;;;;1.50;0.70;;;;;;;19.85;49.38;100350.72;5065113;28;20103;-87
2022/10/28 00:37:13;;;;;;;0.50;0.50;;;;;;;19.82;49.50;100348.53;5066229;28;20021;-87
2022/10/28 00:39:39;;;;;;;2.45;0.90;;;;;;;19.83;49.71;100355.59;5064621;28;20432;-88
2022/10/28 00:42:06;;;;;;;0.90;0.80;;;;;;;19.85;49.37;100350.72;5067522;28;20060;-88
2022/10/28 00:44:54;;;;;;;1.42;0.80;;;;;;;19.83;49.37;100345.56;5061222;28;20052;-87
2022/10/28 00:47:38;;;;;;;1.77;0.80;;;;;;;19.84;49.63;100346.38;5065595;28;20209;-88
2022/10/28 00:50:35;;;;;;;1.10;0.82;;;;;;;19.87;49.51;100351.31;5064123;28;20473;-87
2022/10/28 00:53:07;;;;;;;1.38;0.75;;;;;;;19.84;49.37;100335.53;5037570;28;20059;-87
2022/10/28 00:55:32;;;;;;;1.65;0.75;;;;;;;19.82;49.58;100340.41;5030117;28;20029;-87
2022/10/28 00:57:58;;;;;;;0.60;0.60;;;;;;;19.79;49.55;100338.19;5046211;28;20039;-87
2022/10/28 01:00:24;;;;;;;1.17;0.80;;;;;;;19.87;49.36;100354.03;5049578;28;20036;-87
2022/10/28 01:02:50;;;;;;;0.73;0.55;;;;;;;19.83;49.32;100347.44;5059124;28;20484;-87
2022/10/28 01:05:18;;;;;;;1.10;0.60;;;;;;;19.85;49.48;100353.44;5066835;28;20021;-87
2022/10/28 01:07:44;;;;;;;1.25;0.70;;;;;;;19.83;49.56;100355.59;5046482;28;20481;-87
2022/10/28 01:10:10;;;;;;;1.30;0.80;;;;;;;19.85;49.35;100365.13;5044963;28;20024;-87
2022/10/28 01:12:55;;;;;;;1.98;0.90;;;;;;;19.82;49.76;100356.69;5067173;28;20035;-87
2022/10/28 01:15:48;;;;;;;0.95;0.55;;;;;;;19.84;49.60;100352.63;5059879;28;20048;-87
2022/10/28 01:18:32;;;;;;;1.23;0.90;;;;;;;19.87;49.33;100354.03;5066176;28;20024;-87
2022/10/28 01:21:12;;;;;;;1.00;0.65;;;;;;;19.84;49.38;100346.38;5063667;28;20032;-87
2022/10/28 01:24:14;;;;;;;2.72;0.63;;;;;;;19.83;49.48;100342.88;5065804;28;20469;-87
2022/10/28 01:27:08;;;;;;;2.53;0.70;;;;;;;19.83;49.39;100347.44;5061245;28;20504;-87
2022/10/28 01:29:36;;;;;;;0.80;0.70;;;;;;;19.84;49.41;100346.38;5051448;28;20036;-87
2022/10/28 01:32:13;;;;;;;1.92;0.70;;;;;;;19.82;49.61;100348.53;5061909;28;20017;-87
2022/10/28 01:34:46;;;;;;;0.90;0.65;;;;;;;19.83;49.49;100339.31;5066116;28;20032;-87
2022/10/28 01:37:37;;;;;;;1.25;0.77;;;;;;;19.85;49.42;100342.59;5063974;28;20024;-87
2022/10/28 01:40:15;;;;;;;1.08;0.70;;;;;;;19.88;49.65;100339.38;5063818;28;20020;-87
2022/10/28 01:42:45;;;;;;;0.85;0.65;;;;;;;19.86;49.72;100333.41;5032961;28;20021;-88
2022/10/28 01:45:30;;;;;;;0.80;0.75;;;;;;;19.87;49.53;100335.06;5064015;28;20074;-88
2022/10/28 01:48:03;;;;;;;1.13;0.80;;;;;;;19.83;49.75;100328.47;5051870;28;20028;-87
2022/10/28 01:50:43;;;;;;;1.90;0.90;;;;;;;19.84;49.68;100321.97;5065483;28;20167;-87
2022/10/28 01:53:11;;;;;;;0.90;0.80;;;;;;;19.85;49.55;100320.91;5036236;28;20024;-88
2022/10/28 01:55:41;;;;;;;1.67;0.60;;;;;;;19.85;49.77;100320.91;5032536;28;20583;-87
2022/10/28 01:58:08;;;;;;;1.85;0.70;;;;;;;19.87;49.75;100318.78;5048680;28;20016;-87
2022/10/28 02:00:33;;;;;;;0.77;0.70;;;;;;;19.87;49.47;100324.19;5036003;28;20384;-87
2022/10/28 02:02:59;;;;;;;1.15;0.70;;;;;;;19.85;49.45;100329.03;5047947;28;20028;-87
2022/10/28 02:05:38;;;;;;;1.00;0.80;;;;;;;19.85;49.74;100323.59;5068694;28;20032;-87
2022/10/28 02:08:35;;;;;;;1.80;0.70;;;;;;;19.86;49.62;100306.28;5065256;28;20025;-87
2022/10/28 02:11:01;;;;;;;1.10;0.70;;;;;;;19.83;49.58;100307.63;5067002;28;20035;-87
2022/10/28 02:13:32;;;;;;;1.00;0.73;;;;;;;19.84;49.76;100305.72;5050801;28;20476;-87
2022/10/28 02:16:13;;;;;;;1.83;0.80;;;;;;;19.88;49.53;100304.13;5069002;28;20035;-86
2022/10/28 02:19:00;;;;;;;1.00;0.70;;;;;;;19.87;49.44;100297.09;5052164;28;20012;-87
2022/10/28 02:21:48;;;;;;;2.63;0.90;;;;;;;19.84;49.45;100278.59;5060658;28;20029;-87
2022/10/28 02:24:22;;;;;;;1.95;0.88;;;;;;;19.89;49.55;100293.03;5054576;28;20070;-87
2022/10/28 02:26:52;;;;;;;0.90;0.65;;;;;;;19.85;49.55;100293.78;5065020;28;20028;-87
2022/10/28 02:29:32;;;;;;;1.33;0.80;;;;;;;19.82;49.55;100280.75;5068948;28;20129;-87
2022/10/28 02:32:06;;;;;;;1.35;0.70;;;;;;;19.84;49.50;100276.69;5034854;28;20031;-87
2022/10/28 02:34:34;;;;;;;1.20;0.60;;;;;;;19.83;49.65;100268.81;5066078;28;20028;-87
2022/10/28 02:37:03;;;;;;;1.60;0.80;;;;;;;19.84;49.68;100275.88;5033529;28;20119;-87
2022/10/28 02:39:31;;;;;;;0.60;0.60;;;;;;;19.87;49.53;100291.66;5027950;28;20635;-87
2022/10/28 02:42:11;;;;;;;0.70;0.70;;;;;;;19.89;49.53;100294.94;5051748;28;20021;-87
2022/10/28 02:44:41;;;;;;;1.65;0.90;;;;;;;19.85;49.58;100304.63;5046791;28;20021;-87
2022/10/28 02:47:12;;;;;;;0.77;0.60;;;;;;;19.85;49.69;100302.75;5050322;28;20120;-87
2022/10/28 02:49:38;;;;;;;0.70;0.65;;;;;;;19.86;49.60;100300.84;5065931;28;20032;-87
2022/10/28 02:52:05;;;;;;;2.17;0.80;;;;;;;19.87;49.46;100306.03;5013482;28;20116;-87
2022/10/28 02:55:03;;;;;;;1.20;0.60;;;;;;;19.86;49.49;100306.28;5050584;28;20322;-88
2022/10/28 02:57:34;;;;;;;1.10;0.80;;;;;;;19.88;49.60;100301.41;5048018;28;20032;-88
2022/10/28 03:00:10;;;;;;;0.88;0.60;;;;;;;19.84;49.44;100286.72;5051441;28;20390;-87
2022/10/28 03:02:36;;;;;;;1.63;0.70;;;;;;;19.85;49.72;100299.19;5065894;28;20115;-87
2022/10/28 03:05:03;;;;;;;1.00;0.63;;;;;;;19.87;49.70;100288.94;5067278;28;20069;-87
2022/10/28 03:07:28;;;;;;;1.58;0.80;;;;;;;19.85;49.32;100294.63;5067065;28;20073;-86
2022/10/28 03:09:54;;;;;;;0.93;0.60;;;;;;;19.88;49.28;100312.25;5068045;28;20387;-87
2022/10/28 03:12:20;;;;;;;1.63;0.82;;;;;;;19.84;49.49;100309.22;5069341;28;20128;-87
2022/10/28 03:14:45;;;;;;;1.55;0.77;;;;;;;19.82;49.32;100295.13;5063809;28;20032;-87
2022/10/28 03:17:11;;;;;;;1.17;0.60;;;;;;;19.89;49.39;100306.59;5049082;28;20028;-87
2022/10/28 03:19:36;;;;;;;1.25;0.80;;;;;;;19.88;49.51;100314.97;5048313;28;20138;-87
2022/10/28 03:22:02;;;;;;;1.05;0.85;;;;;;;19.86;49.78;100295.44;5065558;28;20473;-87
2022/10/28 03:24:28;;;;;;;2.55;0.82;;;;;;;19.89;49.44;100303.06;5068195;28;20032;-87
2022/10/28 03:26:53;;;;;;;2.00;1.00;;;;;;;19.86;49.56;100312.50;5063975;28;20046;-87
2022/10/28 03:29:19;;;;;;;0.70;0.70;;;;;;;19.87;49.55;100302.50;5066669;28;20093;-87
2022/10/28 03:31:45;;;;;;;2.47;0.98;;;;;;;19.89;49.55;100300.34;5030710;28;20029;-87
2022/10/28 03:34:11;;;;;;;1.30;0.70;;;;;;;19.89;49.41;100298.44;5065106;28;20059;-87
2022/10/28 03:36:36;;;;;;;1.02;0.70;;;;;;;19.82;49.61;100302.44;5068533;28;20332;-87
2022/10/28 03:39:02;;;;;;;0.77;0.70;;;;;;;19.87;49.53;100305.22;5033346;28;20127;-87
2022/10/28 03:41:27;;;;;;;2.40;0.70;;;;;;;19.90;49.53;100299.25;5066725;28;20020;-86
2022/10/28 03:43:53;;;;;;;1.83;0.90;;;;;;;19.88;49.33;100296.00;5064095;28;20029;-87
2022/10/28 03:46:19;;;;;;;0.77;0.60;;;;;;;19.83;49.60;100285.06;5064338;28;20028;-86
2022/10/28 03:48:44;;;;;;;1.65;0.95;;;;;;;19.88;49.62;100293.28;5068126;28;20036;-87
2022/10/28 03:51:10;;;;;;;1.05;0.85;;;;;;;19.87;49.40;100280.81;5066507;28;20911;-86
2022/10/28 03:53:35;;;;;;;0.88;0.68;;;;;;;19.87;49.40;100275.38;5067059;28;20111;-87
2022/10/28 03:56:01;;;;;;;1.23;0.70;;;;;;;19.84;49.53;100270.47;5046909;28;20436;-87
2022/10/28 03:58:27;;;;;;;1.80;0.80;;;;;;;19.92;49.42;100277.31;5046663;28;20078;-87
2022/10/28 04:00:52;;;;;;;1.15;0.80;;;;;;;19.92;49.45;100271.91;5050783;28;20343;-87
2022/10/28 04:03:19;;;;;;;1.23;0.73;;;;;;;19.89;49.33;100279.47;5064374;28;20043;-87
2022/10/28 04:05:47;;;;;;;3.08;1.00;;;;;;;19.88;49.73;100277.81;5049449;28;20020;-87
2022/10/28 04:08:13;;;;;;;0.75;0.75;;;;;;;19.89;49.34;100274.03;5048181;28;20028;-87
2022/10/28 04:10:38;;;;;;;1.63;0.80;;;;;;;19.88;49.41;100264.25;5065996;28;20097;-87
2022/10/28 04:13:04;;;;;;;1.58;0.93;;;;;;;19.89;49.84;100267.81;5050076;28;20041;-87
2022/10/28 04:15:30;;;;;;;1.67;0.70;;;;;;;19.92;49.54;100261.06;5044789;28;20503;-87
2022/10/28 04:17:56;;;;;;;1.35;0.75;;;;;;;19.88;49.48;100263.44;5033018;28;20120;-87
2022/10/28 04:20:21;;;;;;;1.42;0.70;;;;;;;19.86;49.47;100268.31;5063308;28;20457;-87
2022/10/28 04:22:47;;;;;;;1.38;0.65;;;;;;;19.87;49.62;100264.53;5045816;28;20052;-87
2022/10/28 04:25:13;;;;;;;2.38;0.77;;;;;;;19.89;49.56;100273.25;5066592;28;20491;-87
2022/10/28 04:27:38;;;;;;;1.40;0.70;;;;;;;19.87;49.62;100269.97;5062168;28;20044;-87
2022/10/28 04:30:04;;;;;;;1.73;0.82;;;;;;;19.86;49.78;100268.31;5067478;28;20561;-87
2022/10/28 04:32:30;;;;;;;1.63;0.93;;;;;;;19.88;49.56;100277.00;5063248;28;20536;-87
2022/10/28 04:34:56;;;;;;;1.08;0.70;;;;;;;19.90;49.32;100283.00;5066461;28;20020;-87
2022/10/28 04:37:21;;;;;;;1.98;0.90;;;;;;;19.88;49.47;100277.00;5065396;28;20031;-87
2022/10/28 04:39:47;;;;;;;1.05;0.63;;;;;;;19.88;49.72;100280.53;5064330;28;20028;-87
2022/10/28 04:42:13;;;;;;;1.05;0.70;;;;;;;19.89;49.48;100278.66;5067732;28;20070;-87
2022/10/28 04:44:38;;;;;;;0.75;0.73;;;;;;;19.90;49.31;100288.41;5048183;28;20024;-87
2022/10/28 04:47:04;;;;;;;1.48;0.80;;;;;;;19.87;49.66;100283.53;5066755;28;20533;-87
2022/10/28 04:49:29;;;;;;;0.85;0.60;;;;;;;19.87;49.64;100278.09;5048906;28;20024;-87
2022/10/28 04:51:55;;;;;;;1.60;0.80;;;;;;;19.86;49.65;100279.16;5047332;28;20028;-87
2022/10/28 04:54:21;;;;;;;1.70;0.85;;;;;;;19.86;49.41;100285.41;5067345;28;20104;-87
2022/10/28 04:56:46;;;;;;;1.15;0.77;;;;;;;19.87;49.72;100276.19;5061485;28;20032;-87
2022/10/28 04:59:12;;;;;;;1.00;0.77;;;;;;;19.90;49.47;100277.56;5065448;28;20039;-87
2022/10/28 05:01:37;;;;;;;1.20;0.80;;;;;;;19.89;49.50;100278.66;5065962;28;20042;-87
2022/10/28 05:04:03;;;;;;;1.42;0.70;;;;;;;19.85;49.78;100266.66;5061426;28;20099;-87
2022/10/28 05:06:29;;;;;;;1.60;0.90;;;;;;;19.87;49.70;100267.25;5067323;28;20107;-87
2022/10/28 05:08:54;;;;;;;1.98;0.70;;;;;;;19.88;49.75;100263.44;5063554;28;20021;-87
2022/10/28 05:11:20;;;;;;;1.13;0.80;;;;;;;19.87;49.49;100259.13;5066717;28;20481;-87
2022/10/28 05:13:45;;;;;;;1.48;0.70;;;;;;;19.87;49.72;100270.78;5048314;28;20107;-87
2022/10/28 05:16:11;;;;;;;1.55;0.80;;;;;;;19.86;49.78;100260.19;5060185;28;20064;-87
2022/10/28 05:18:37;;;;;;;2.42;0.80;;;;;;;19.88;49.54;100266.16;5069889;28;20410;-87
2022/10/28 05:21:02;;;;;;;1.55;0.68;;;;;;;19.88;49.72;100266.16;5068205;28;20052;-87
2022/10/28 05:23:28;;;;;;;1.73;0.90;;;;;;;19.89;49.84;100275.94;5069974;28;20029;-87
2022/10/28 05:25:53;;;;;;;2.15;0.77;;;;;;;19.93;49.57;100271.66;5068382;28;20119;-87
2022/10/28 05:28:20;;;;;;;1.73;0.80;;;;;;;19.88;49.53;100260.72;5068543;28;20036;-87
2022/10/28 05:30:46;;;;;;;1.77;0.70;;;;;;;19.86;49.81;100257.47;5071089;28;20020;-87
2022/10/28 05:33:11;;;;;;;1.92;0.90;;;;;;;19.88;49.68;100266.97;5064121;28;20492;-87
2022/10/28 05:35:38;;;;;;;1.55;0.70;;;;;;;19.89;49.52;100267.81;5071011;28;20158;-87
2022/10/28 05:38:03;;;;;;;0.75;0.60;;;;;;;19.87;49.77;100265.34;5052001;28;20464;-87
2022/10/28 05:40:31;;;;;;;1.35;0.98;;;;;;;19.88;49.68;100272.41;5069152;28;20082;-87
2022/10/28 05:42:57;;;;;;;1.65;0.80;;;;;;;19.87;49.65;100272.69;5070839;28;20104;-87
2022/10/28 05:45:23;;;;;;;1.58;0.70;;;;;;;19.87;49.77;100264.53;5064671;28;20637;-87
2022/10/28 05:47:49;;;;;;;1.08;0.77;;;;;;;19.87;49.90;100272.69;5051155;28;20029;-87
2022/10/28 05:50:16;;;;;;;1.33;0.77;;;;;;;19.89;50.00;100278.66;5064108;28;20082;-87
2022/10/28 05:52:46;;;;;;;2.88;0.70;;;;;;;19.93;49.80;100271.66;5065786;28;20031;-87
2022/10/28 05:55:11;;;;;;;2.47;0.80;;;;;;;19.89;49.74;100267.81;5067948;28;20047;-87
2022/10/28 05:57:37;;;;;;;1.83;0.68;;;;;;;19.91;49.55;100276.50;5067162;28;20052;-87
2022/10/28 06:00:03;;;;;;;1.73;0.98;;;;;;;19.89;49.78;100273.25;5069387;28;20361;-87
2022/10/28 06:02:29;;;;;;;2.40;0.90;;;;;;;19.90;49.96;100280.28;5066692;28;20104;-87
2022/10/28 06:04:54;;;;;;;0.88;0.60;;;;;;;19.86;49.88;100273.72;5066312;28;20108;-87
2022/10/28 06:07:20;;;;;;;1.05;0.65;;;;;;;19.89;49.88;100268.63;5069872;28;20030;-87
2022/10/28 06:09:46;;;;;;;0.93;0.60;;;;;;;19.91;49.81;100271.09;5064035;28;20054;-87
2022/10/28 06:12:11;;;;;;;1.00;0.70;;;;;;;19.91;49.67;100271.09;5052401;28;20024;-87
2022/10/28 06:14:37;;;;;;;1.90;0.80;;;;;;;19.93;49.59;100263.50;5066630;28;20020;-87
2022/10/28 06:17:02;;;;;;;1.30;0.70;;;;;;;19.93;49.81;100252.66;5049944;28;20024;-87
2022/10/28 06:19:28;;;;;;;1.73;0.80;;;;;;;19.87;49.73;100243.66;5051605;28;20036;-87
2022/10/28 06:21:53;;;;;;;2.03;0.93;;;;;;;19.88;49.83;100249.88;5032910;28;20025;-87
2022/10/28 06:24:19;;;;;;;1.65;0.73;;;;;;;19.90;49.98;100253.16;5067731;28;20052;-88
2022/10/28 06:26:45;;;;;;;2.08;0.73;;;;;;;19.93;49.91;100258.09;5068027;28;20046;-87
2022/10/28 06:29:10;;;;;;;1.02;0.70;;;;;;;19.92;49.90;100253.75;5067912;28;20058;-87
2022/10/28 06:31:42;;;;;;;1.80;0.75;;;;;;;19.91;49.87;100257.53;5068687;28;20070;-87
2022/10/28 06:34:09;;;;;;;1.13;0.80;;;;;;;19.91;49.92;100265.66;5048127;28;20495;-87
2022/10/28 06:36:35;;;;;;;1.80;0.65;;;;;;;19.91;49.80;100262.94;5069807;28;20055;-87
2022/10/28 06:39:00;;;;;;;1.13;0.70;;;;;;;19.88;49.68;100266.97;5061178;28;20020;-87
2022/10/28 06:41:26;;;;;;;1.17;0.80;;;;;;;19.92;49.83;100261.88;5068987;28;20040;-87
2022/10/28 06:43:51;;;;;;;1.13;0.80;;;;;;;19.91;49.87;100262.13;5066553;28;20523;-88
2022/10/28 06:46:20;;;;;;;3.00;0.80;;;;;;;19.91;49.81;100249.38;5068042;28;20082;-88
2022/10/28 06:48:46;;;;;;;1.55;1.00;;;;;;;19.89;50.06;100246.13;5052073;28;20024;-87
2022/10/28 06:51:11;;;;;;;2.05;0.80;;;;;;;19.91;49.90;100254.81;5063464;28;20190;-87
2022/10/28 06:53:37;;;;;;;0.93;0.75;;;;;;;19.94;49.75;100257.03;5067285;28;20075;-87
2022/10/28 06:56:03;;;;;;;1.55;0.68;;;;;;;19.90;49.98;100253.16;5046195;28;20100;-88
2022/10/28 06:58:28;;;;;;;1.45;0.70;;;;;;;19.92;50.04;100256.47;5068389;28;20024;-87
2022/10/28 07:00:54;;;;;;;1.85;0.85;;;;;;;19.95;49.93;100244.28;5069448;28;20028;-87
2022/10/28 07:03:19;;;;;;;1.90;0.80;;;;;;;19.92;50.01;100256.47;5064929;28;20115;-87
2022/10/28 07:05:45;;;;;;;0.93;0.60;;;;;;;19.96;49.78;100256.78;5067503;28;20028;-87
2022/10/28 07:08:11;;;;;;;1.90;0.82;;;;;;;19.95;50.05;100261.34;5045969;28;20037;-88
2022/10/28 07:10:37;;;;;;;1.25;0.63;;;;;;;19.97;49.98;100253.81;5066134;28;20058;-87
2022/10/28 07:13:02;;;;;;;1.45;0.90;;;;;;;19.94;49.82;100259.75;5068773;28;20032;-87
2022/10/28 07:15:28;;;;;;;1.35;0.90;;;;;;;19.94;50.18;100267.03;5063060;28;20103;-87
2022/10/28 07:17:54;;;;;;;1.20;0.82;;;;;;;19.95;50.05;100263.25;5068301;28;20116;-87
2022/10/28 07:20:20;;;;;;;2.97;0.60;;;;;;;19.96;49.97;100259.50;5047820;28;20028;-87
2022/10/28 07:22:46;;;;;;;1.55;0.80;;;;;;;19.92;50.02;100263.75;5066693;28;20040;-87
2022/10/28 07:25:11;;;;;;;3.10;0.95;;;;;;;19.92;50.14;100266.47;5050624;28;20032;-87
2022/10/28 07:27:37;;;;;;;1.55;0.80;;;;;;;19.86;50.24;100249.31;5060917;28;20525;-87
2022/10/28 07:30:03;;;;;;;2.15;0.80;;;;;;;19.96;50.06;100260.31;5069071;28;20064;-87
2022/10/28 07:32:31;;;;;;;1.20;0.80;;;;;;;19.97;49.93;100261.94;5066006;28;20032;-87
2022/10/28 07:34:57;;;;;;;0.85;0.77;;;;;;;19.94;50.29;100259.75;5067173;28;20118;-87
2022/10/28 07:37:23;;;;;;;1.15;0.70;;;;;;;19.96;50.15;100259.50;5050534;28;20036;-87
2022/10/28 07:39:49;;;;;;;2.53;0.70;;;;;;;19.94;50.04;100264.31;5046233;28;20060;-87
2022/10/28 07:42:15;;;;;;;0.70;0.60;;;;;;;19.94;50.38;100262.44;5068779;28;20424;-87
2022/10/28 07:44:40;;;;;;;2.53;0.88;;;;;;;19.97;50.09;100266.53;5063776;28;20078;-88
2022/10/28 07:47:06;;;;;;;1.58;0.90;;;;;;;19.99;50.11;100267.94;5065375;28;20036;-87
2022/10/28 07:49:32;;;;;;;0.90;0.68;;;;;;;19.97;50.00;100261.94;5050122;28;20083;-87
2022/10/28 07:51:57;;;;;;;1.42;0.70;;;;;;;19.98;50.24;100258.16;5064502;28;20035;-87
2022/10/28 07:54:23;;;;;;;1.52;0.88;;;;;;;19.98;50.16;100249.19;5067234;28;20063;-87
2022/10/28 07:56:48;;;;;;;1.73;0.80;;;;;;;19.99;50.13;100248.94;5045285;28;20025;-87
2022/10/28 07:59:14;;;;;;;1.95;1.00;;;;;;;19.95;50.27;100265.97;5048233;28;20533;-86
2022/10/28 08:01:40;;;;;;;2.45;0.98;;;;;;;19.96;50.31;100257.59;5049978;28;20089;-87
2022/10/28 08:04:05;;;;;;;2.22;0.80;;;;;;;19.99;50.19;100257.09;5061839;28;20107;-87
2022/10/28 08:06:32;;;;;;;1.52;0.80;;;;;;;19.97;50.29;100248.38;5067680;28;20191;-87
2022/10/28 08:08:58;;;;;;;1.90;0.70;;;;;;;19.96;50.56;100246.75;5063657;28;20447;-87
2022/10/28 08:11:24;;;;;;;2.08;0.90;;;;;;;19.96;50.33;100251.34;5065924;28;20029;-87
2022/10/28 08:13:50;;;;;;;1.73;0.70;;;;;;;19.94;50.13;100248.88;5067776;28;20496;-87
2022/10/28 08:16:16;;;;;;;3.80;1.00;;;;;;;19.98;50.07;100260.84;5042596;28;20090;-87
2022/10/28 08:18:42;;;;;;;2.53;0.90;;;;;;;20.00;50.40;100269.56;5049852;28;20028;-87
2022/10/28 08:21:08;;;;;;;1.77;0.70;;;;;;;20.00;50.38;100247.84;5064397;28;20031;-87
2022/10/28 08:23:34;;;;;;;3.28;0.93;;;;;;;20.02;50.33;100242.19;5067644;28;20024;-87
2022/10/28 08:25:59;;;;;;;1.83;0.80;;;;;;;20.00;50.15;100239.72;5048510;28;20110;-87
2022/10/28 08:28:25;;;;;;;2.30;0.88;;;;;;;20.01;50.33;100246.78;5063128;28;20127;-87
2022/10/28 08:30:50;;;;;;;3.90;1.00;;;;;;;20.02;50.47;100245.75;5065101;28;20503;-87
2022/10/28 08:33:17;;;;;;;1.42;0.60;;;;;;;20.03;50.39;100247.34;5059917;28;20481;-87
2022/10/28 08:35:42;;;;;;;2.78;0.90;;;;;;;20.02;50.31;100251.16;5049541;28;20310;-87
2022/10/28 08:38:08;;;;;;;1.33;0.80;;;;;;;20.00;50.44;100242.44;5046574;28;20100;-87
2022/10/28 08:41:07;;;;;;;4.43;1.10;;;;;;;20.03;50.48;100252.78;5066396;28;20458;-87
2022/10/28 08:43:37;;;;;;;1.50;0.90;;;;;;;20.03;50.45;100251.97;5066789;28;20025;-88
2022/10/28 08:46:34;;;;;;;2.15;0.90;;;;;;;20.04;50.41;100253.59;5062142;28;20560;-87
2022/10/28 08:49:01;;;;;;;2.85;1.35;;;;;;;20.04;50.46;100243.59;5040507;28;20040;-87
2022/10/28 08:52:16;;;;;;;3.22;1.00;;;;;;;20.03;50.27;100230.28;5042566;28;20145;-87
2022/10/28 08:55:00;;;;;;;1.70;0.73;;;;;;;20.02;50.47;100240.31;5062679;28;20036;-87
2022/10/28 08:57:54;;;;;;;2.37;0.90;;;;;;;20.04;50.33;100235.44;5032115;28;20037;-87
2022/10/28 09:00:28;;;;;;;3.15;0.90;;;;;;;19.97;50.47;100218.56;5044857;28;20033;-87
2022/10/28 09:03:11;;;;;;;1.42;1.00;;;;;;;20.02;50.41;100229.47;5042606;28;20634;-87
2022/10/28 09:05:48;;;;;;;2.78;0.98;;;;;;;20.00;50.58;100222.63;5063749;28;20093;-87
2022/10/28 09:08:25;;;;;;;1.70;0.77;;;;;;;20.04;50.40;100231.91;5045586;28;20497;-88
2022/10/28 09:11:08;;;;;;;1.42;0.88;;;;;;;20.07;50.29;100223.25;5047218;28;20036;-87
2022/10/28 09:14:02;;;;;;;1.52;0.75;;;;;;;20.03;50.83;100231.09;5067346;28;20043;-87
2022/10/28 09:16:39;;;;;;;1.38;0.82;;;;;;;20.05;50.71;100220.78;5063505;28;20477;-87
2022/10/28 09:19:37;;;;;;;1.70;1.08;;;;;;;20.07;50.39;100226.81;5067039;28;20501;-87
2022/10/28 09:22:11;;;;;;;1.98;0.85;;;;;;;20.05;50.73;100218.06;5063472;28;20035;-87
2022/10/28 09:24:46;;;;;;;2.08;0.80;;;;;;;20.05;50.83;100217.28;5064681;28;20028;-87
2022/10/28 09:27:36;;;;;;;1.70;0.82;;;;;;;20.11;50.52;100218.97;5043141;28;20037;-87
2022/10/28 09:30:33;;;;;;;2.97;0.90;;;;;;;20.10;50.70;100219.22;5066758;28;20071;-87
2022/10/28 09:33:07;;;;;;;2.33;1.05;;;;;;;20.06;50.86;100214.31;5064523;28;20025;-87
2022/10/28 09:35:39;;;;;;;2.67;0.90;;;;;;;20.07;50.80;100225.97;5065925;28;20017;-87
2022/10/28 09:38:16;;;;;;;2.47;0.80;;;;;;;20.11;50.75;100218.13;5064400;28;20036;-87
2022/10/28 09:40:45;;;;;;;1.48;0.60;;;;;;;20.10;50.71;100213.81;5048241;28;20036;-87
2022/10/28 09:43:30;;;;;;;4.28;1.15;;;;;;;20.12;50.70;100212.47;5066696;28;20050;-87
2022/10/28 09:46:16;;;;;;;1.52;0.90;;;;;;;20.12;50.75;100222.50;5041048;28;20040;-87
2022/10/28 09:48:48;;;;;;;2.22;1.15;;;;;;;20.14;50.68;100231.19;5048532;28;20037;-87
2022/10/28 09:51:28;;;;;;;2.58;1.08;;;;;;;20.06;50.93;100213.50;5045261;28;20035;-87
2022/10/28 09:53:57;;;;;;;2.15;0.85;;;;;;;20.13;50.76;100218.69;5048531;28;20025;-87
2022/10/28 09:56:23;;;;;;;2.47;0.95;;;;;;;20.11;50.68;100210.00;5045572;28;20028;-87
2022/10/28 09:58:49;;;;;;;3.58;1.20;;;;;;;20.11;50.80;100204.56;5063135;28;20468;-87
2022/10/28 10:01:16;;;;;;;1.92;1.17;;;;;;;20.11;51.04;100202.69;5048955;28;20033;-87
2022/10/28 10:03:42;;;;;;;1.98;1.02;;;;;;;20.14;50.88;100204.06;5059304;28;20484;-87
2022/10/28 10:06:30;;;;;;;2.42;1.00;;;;;;;20.15;50.89;100194.88;5049913;28;20024;-87
2022/10/28 10:08:56;;;;;;;2.65;0.93;;;;;;;20.14;51.14;100204.06;5033776;28;20028;-87
2022/10/28 10:11:28;;;;;;;1.17;0.80;;;;;;;20.13;50.93;100197.00;5069361;28;20025;-87
2022/10/28 10:13:54;;;;;;;2.03;0.88;;;;;;;20.16;51.01;100197.31;5051434;28;20024;-87
2022/10/28 10:16:45;;;;;;;1.60;0.80;;;;;;;20.17;50.69;100198.13;5064670;28;20025;-87
2022/10/28 10:19:11;;;;;;;3.15;1.10;;;;;;;20.15;51.01;100203.00;5069001;28;20036;-87
2022/10/28 10:21:42;;;;;;;2.38;0.82;;;;;;;20.18;51.00;100194.31;5047486;28;20089;-87
2022/10/28 10:24:30;;;;;;;3.45;1.00;;;;;;;20.18;50.95;100188.91;5050006;28;20083;-88
2022/10/28 10:27:00;;;;;;;2.45;1.00;;;;;;;20.18;51.10;100183.47;5061269;28;20049;-87
2022/10/28 10:29:26;;;;;;;2.03;0.98;;;;;;;20.20;51.08;100198.44;5051090;28;20107;-88
2022/10/28 10:32:27;;;;;;;1.58;0.88;;;;;;;20.18;50.98;100184.31;5069388;28;20122;-87
2022/10/28 10:35:03;;;;;;;3.25;1.27;;;;;;;20.18;50.84;100186.19;4966362;28;20042;-87
2022/10/28 10:37:30;;;;;;;2.70;0.98;;;;;;;20.18;51.11;100186.19;5037913;28;20087;-87
2022/10/28 10:40:09;;;;;;;2.03;0.80;;;;;;;20.19;51.01;100185.13;5047648;28;20135;-88
2022/10/28 10:42:36;;;;;;;3.00;1.08;;;;;;;20.22;50.81;100184.63;5052019;28;20020;-87
2022/10/28 10:45:25;;;;;;;2.65;1.00;;;;;;;20.19;51.06;100187.84;5062118;28;20112;-88
2022/10/28 10:48:13;;;;;;;2.47;1.00;;;;;;;20.22;50.89;100187.34;5066638;28;20024;-87
2022/10/28 10:50:39;;;;;;;1.95;1.00;;;;;;;20.23;50.86;100180.81;5049275;28;20025;-87
2022/10/28 10:53:04;;;;;;;2.22;0.88;;;;;;;20.24;50.94;100177.03;5067922;28;20016;-87
2022/10/28 10:55:38;;;;;;;4.05;1.17;;;;;;;20.20;51.18;100179.44;5069191;28;20123;-87
2022/10/28 10:58:04;;;;;;;2.10;0.90;;;;;;;20.20;51.05;100181.34;5062404;28;20025;-87
2022/10/28 11:00:32;;;;;;;2.80;1.10;;;;;;;20.23;50.84;100194.38;5050693;28;20369;-87
2022/10/28 11:02:58;;;;;;;2.67;1.23;;;;;;;20.22;50.95;100185.44;5033324;28;20406;-87
2022/10/28 11:05:24;;;;;;;1.50;0.80;;;;;;;20.20;51.38;100186.78;5030724;28;20300;-87
2022/10/28 11:07:50;;;;;;;3.42;1.27;;;;;;;20.23;51.08;100192.50;5051197;28;20107;-88
2022/10/28 11:10:29;;;;;;;4.07;1.33;;;;;;;20.24;51.06;100187.88;5065152;28;20031;-87
2022/10/28 11:13:01;;;;;;;3.47;0.98;;;;;;;20.24;50.94;100185.19;5069152;28;20059;-88
2022/10/28 11:15:28;;;;;;;3.97;1.10;;;;;;;20.24;51.20;100182.47;5063590;28;20028;-87
2022/10/28 11:18:19;;;;;;;2.10;0.80;;;;;;;20.23;50.98;100176.22;5068540;28;20028;-87
2022/10/28 11:21:12;;;;;;;1.73;0.80;;;;;;;20.24;51.05;100186.00;5031870;28;20561;-87
2022/10/28 11:24:02;;;;;;;4.50;0.98;;;;;;;20.26;50.82;100191.16;5060300;28;20035;-87
2022/10/28 11:26:28;;;;;;;5.30;1.25;;;;;;;20.21;51.26;100172.13;5066574;28;20059;-87
2022/10/28 11:29:00;;;;;;;2.47;0.98;;;;;;;20.26;51.18;100166.75;5045122;28;20073;-88
2022/10/28 11:31:34;;;;;;;2.42;1.10;;;;;;;20.28;50.88;100164.56;5048333;28;20555;-88
2022/10/28 11:34:15;;;;;;;1.95;0.88;;;;;;;20.26;50.97;100153.16;5042682;28;20024;-88
2022/10/28 11:36:51;;;;;;;3.40;0.98;;;;;;;20.27;51.10;100152.09;5046102;28;20021;-87
2022/10/28 11:39:32;;;;;;;2.13;1.05;;;;;;;20.26;51.17;100158.59;5040092;28;20032;-87